Time;durP1;ratioP1;P1;durP2;ratioP2;P2;SDS_P1;SDS_P2;PMS_P1;PMS_P2;Temp;Humidity;BMP_temperature;BMP_pressure;BME280_temperature;BME280_humidity;BME280_pressure;Samples;Min_cycle;Max_cycle;Signal;HPM_P1;HPM_P2
2021/01/06 00:01:02;;;;;;;14.90;7.67;;;3.30;90.30;;;;;;5053665;28;20025;-74
2021/01/06 00:03:28;;;;;;;14.03;7.27;;;3.30;90.30;;;;;;5053242;28;20063;-74
2021/01/06 00:05:57;;;;;;;14.73;7.10;;;3.20;90.40;;;;;;5054167;28;20028;-74
2021/01/06 00:08:24;;;;;;;12.63;6.73;;;3.20;90.70;;;;;;5053440;28;20096;-74
2021/01/06 00:10:56;;;;;;;15.27;7.70;;;3.20;90.60;;;;;;5052735;28;20466;-73
2021/01/06 00:13:22;;;;;;;16.80;7.18;;;3.20;90.70;;;;;;5053073;28;20029;-74
2021/01/06 00:15:48;;;;;;;14.30;7.20;;;3.20;90.50;;;;;;5052782;28;20032;-74
2021/01/06 00:18:14;;;;;;;14.40;7.40;;;3.20;90.50;;;;;;5052660;28;20029;-74
2021/01/06 00:20:40;;;;;;;15.13;7.30;;;3.30;90.50;;;;;;5051674;28;20163;-73
2021/01/06 00:23:06;;;;;;;16.87;7.77;;;3.30;90.60;;;;;;5053502;28;20107;-74
2021/01/06 00:25:34;;;;;;;18.37;7.87;;;3.30;90.40;;;;;;5053167;28;20455;-74
2021/01/06 00:28:01;;;;;;;16.00;7.57;;;3.30;90.60;;;;;;5053437;28;20033;-74
2021/01/06 00:30:37;;;;;;;16.93;7.93;;;3.20;90.70;;;;;;5051843;28;20163;-73
2021/01/06 00:33:05;;;;;;;12.67;7.50;;;3.20;90.60;;;;;;5052358;28;20060;-74
2021/01/06 00:35:31;;;;;;;18.43;8.53;;;3.30;90.60;;;;;;5053004;28;20031;-75
2021/01/06 00:38:00;;;;;;;14.80;7.90;;;3.30;90.40;;;;;;5052472;28;20033;-74
2021/01/06 00:40:29;;;;;;;16.73;8.33;;;3.30;90.30;;;;;;5053123;28;20104;-74
2021/01/06 00:43:00;;;;;;;18.57;8.20;;;3.30;90.40;;;;;;5052081;28;20036;-74
2021/01/06 00:45:26;;;;;;;18.27;8.35;;;3.30;90.40;;;;;;5051498;28;20052;-74
2021/01/06 00:47:52;;;;;;;19.43;9.03;;;3.30;90.30;;;;;;5053305;28;20040;-74
2021/01/06 00:50:24;;;;;;;17.97;7.73;;;3.20;90.30;;;;;;5051906;28;20424;-74
2021/01/06 00:52:50;;;;;;;17.17;7.93;;;3.20;90.30;;;;;;5052024;28;20470;-74
2021/01/06 00:55:15;;;;;;;15.30;7.77;;;3.30;90.30;;;;;;5053233;28;20029;-74
2021/01/06 00:57:41;;;;;;;16.27;7.73;;;3.30;90.20;;;;;;5051225;28;20040;-74
2021/01/06 01:00:13;;;;;;;20.13;8.57;;;3.20;90.10;;;;;;5053071;28;20032;-74
2021/01/06 01:02:39;;;;;;;19.92;9.02;;;3.20;90.10;;;;;;5051291;28;20021;-74
2021/01/06 01:05:05;;;;;;;17.93;8.60;;;3.20;90.10;;;;;;5052717;28;20107;-74
2021/01/06 01:07:31;;;;;;;19.57;8.60;;;3.20;90.20;;;;;;5052577;28;20025;-74
2021/01/06 01:09:56;;;;;;;17.90;8.37;;;3.20;90.20;;;;;;5052952;28;20033;-74
2021/01/06 01:12:22;;;;;;;17.67;8.20;;;3.20;90.20;;;;;;5051487;28;20033;-74
2021/01/06 01:14:50;;;;;;;18.07;7.97;;;3.20;90.30;;;;;;5051639;28;20025;-74
2021/01/06 01:17:17;;;;;;;18.17;8.60;;;3.20;90.30;;;;;;5051506;28;20025;-74
2021/01/06 01:19:42;;;;;;;16.80;7.97;;;3.20;90.40;;;;;;5050774;28;20021;-74
2021/01/06 01:22:08;;;;;;;19.60;8.27;;;3.20;90.30;;;;;;5051423;28;20048;-74
2021/01/06 01:24:33;;;;;;;18.83;8.60;;;3.20;90.30;;;;;;5052138;28;20024;-74
2021/01/06 01:26:59;;;;;;;17.73;8.17;;;3.20;90.40;;;;;;5051479;28;20032;-74
2021/01/06 01:29:25;;;;;;;16.83;7.77;;;3.20;90.30;;;;;;5050231;28;20049;-74
2021/01/06 01:31:50;;;;;;;18.47;8.13;;;3.20;90.30;;;;;;5052350;28;20025;-74
2021/01/06 01:34:16;;;;;;;18.67;8.47;;;3.20;90.40;;;;;;5052695;28;20021;-74
2021/01/06 01:36:46;;;;;;;21.23;8.40;;;3.20;90.60;;;;;;5050772;28;20037;-74
2021/01/06 01:39:12;;;;;;;17.97;8.33;;;3.10;90.60;;;;;;5051232;28;20654;-74
2021/01/06 01:41:37;;;;;;;18.03;8.20;;;3.10;90.70;;;;;;5050704;28;20115;-74
2021/01/06 01:44:03;;;;;;;17.10;8.03;;;3.10;90.60;;;;;;5051217;28;20028;-74
2021/01/06 01:46:32;;;;;;;18.47;7.87;;;3.10;90.50;;;;;;5050638;28;20436;-74
2021/01/06 01:49:00;;;;;;;16.67;8.00;;;3.10;90.50;;;;;;5051125;28;20029;-74
2021/01/06 01:51:38;;;;;;;17.60;8.03;;;3.20;90.60;;;;;;5051468;28;20033;-74
2021/01/06 01:54:07;;;;;;;18.37;7.63;;;3.20;90.50;;;;;;5052457;28;20037;-74
2021/01/06 01:56:44;;;;;;;15.87;8.00;;;3.10;90.50;;;;;;5051526;28;20029;-74
2021/01/06 01:59:33;;;;;;;16.60;7.90;;;3.10;90.40;;;;;;5052342;28;20037;-74
2021/01/06 02:02:03;;;;;;;19.57;8.13;;;3.20;90.40;;;;;;5050541;28;20474;-74
2021/01/06 02:04:38;;;;;;;18.43;8.37;;;3.20;90.40;;;;;;5051759;28;20065;-73
2021/01/06 02:07:11;;;;;;;15.83;8.10;;;3.20;90.40;;;;;;5052384;28;20025;-74
2021/01/06 02:09:47;;;;;;;16.77;8.03;;;3.20;90.50;;;;;;5050361;28;20029;-74
2021/01/06 02:12:23;;;;;;;18.87;7.80;;;3.20;90.40;;;;;;5052299;28;20108;-74
2021/01/06 02:15:08;;;;;;;18.40;7.87;;;3.20;90.50;;;;;;5052233;28;20074;-74
2021/01/06 02:17:33;;;;;;;17.43;8.17;;;3.20;90.60;;;;;;5051609;28;20021;-74
2021/01/06 02:19:59;;;;;;;19.17;8.63;;;3.30;90.60;;;;;;5050839;28;20036;-74
2021/01/06 02:22:25;;;;;;;16.40;7.97;;;3.20;90.60;;;;;;5050251;28;20029;-74
2021/01/06 02:24:52;;;;;;;14.87;7.07;;;3.30;90.60;;;;;;5054593;28;20094;-74
2021/01/06 02:27:19;;;;;;;15.47;7.97;;;3.20;90.50;;;;;;5054759;28;20489;-74
2021/01/06 02:29:45;;;;;;;17.47;8.33;;;3.30;90.50;;;;;;5053865;28;20380;-74
2021/01/06 02:32:11;;;;;;;14.13;7.20;;;3.30;90.60;;;;;;5054849;28;20053;-74
2021/01/06 02:34:39;;;;;;;16.60;7.60;;;3.30;90.50;;;;;;5055270;28;20493;-74
2021/01/06 02:37:05;;;;;;;14.93;7.20;;;3.30;90.30;;;;;;5054523;28;20473;-74
2021/01/06 02:39:32;;;;;;;16.20;7.80;;;3.30;90.30;;;;;;5055209;28;20036;-74
2021/01/06 02:41:58;;;;;;;14.63;6.90;;;3.30;90.30;;;;;;5054450;28;20056;-74
2021/01/06 02:44:24;;;;;;;16.50;6.83;;;3.30;90.20;;;;;;5054474;28;20116;-74
2021/01/06 02:46:52;;;;;;;15.40;7.37;;;3.20;90.30;;;;;;5055056;28;20071;-74
2021/01/06 02:49:18;;;;;;;14.73;7.50;;;3.20;90.40;;;;;;5054327;28;20450;-74
2021/01/06 02:51:55;;;;;;;13.80;7.40;;;3.20;90.40;;;;;;5055273;28;20033;-74
2021/01/06 02:54:27;;;;;;;12.27;6.63;;;3.20;90.20;;;;;;5055576;28;20052;-74
2021/01/06 02:56:57;;;;;;;14.77;6.43;;;3.20;90.30;;;;;;5054545;28;20029;-74
2021/01/06 02:59:26;;;;;;;11.77;6.67;;;3.10;90.30;;;;;;5055436;28;20470;-74
2021/01/06 03:01:53;;;;;;;13.57;6.70;;;3.10;90.40;;;;;;5054180;28;20025;-74
2021/01/06 03:04:23;;;;;;;15.50;7.50;;;3.10;90.30;;;;;;5055321;28;20025;-74
2021/01/06 03:06:56;;;;;;;15.13;6.47;;;3.00;90.40;;;;;;5053474;28;20087;-74
2021/01/06 03:09:35;;;;;;;12.77;6.33;;;3.00;90.30;;;;;;5054080;28;20040;-74
2021/01/06 03:12:04;;;;;;;14.20;6.10;;;3.00;90.30;;;;;;5055374;28;20111;-75
2021/01/06 03:14:32;;;;;;;15.00;6.80;;;3.10;90.30;;;;;;5053264;28;20021;-74
2021/01/06 03:16:59;;;;;;;13.63;6.30;;;3.10;90.30;;;;;;5053807;28;20112;-74
2021/01/06 03:19:27;;;;;;;14.50;6.60;;;3.10;90.20;;;;;;5053806;28;20082;-74
2021/01/06 03:21:56;;;;;;;13.93;6.30;;;3.10;90.20;;;;;;5053722;28;20028;-74
2021/01/06 03:24:26;;;;;;;13.47;6.33;;;3.10;90.20;;;;;;5053793;28;20029;-74
2021/01/06 03:26:55;;;;;;;14.10;6.47;;;3.10;90.30;;;;;;5054123;28;20075;-74
2021/01/06 03:29:21;;;;;;;14.67;6.90;;;3.10;90.30;;;;;;5054821;28;20140;-74
2021/01/06 03:31:48;;;;;;;16.23;6.87;;;3.10;90.30;;;;;;5052958;28;20029;-74
2021/01/06 03:34:24;;;;;;;13.67;6.23;;;3.10;90.30;;;;;;5053043;28;20474;-74
2021/01/06 03:37:05;;;;;;;11.40;6.07;;;3.10;90.30;;;;;;5052584;28;20029;-74
2021/01/06 03:39:38;;;;;;;12.37;6.23;;;3.10;90.30;;;;;;5054196;28;20033;-74
2021/01/06 03:42:04;;;;;;;14.40;6.30;;;3.10;90.40;;;;;;5054420;28;20036;-74
2021/01/06 03:44:30;;;;;;;12.37;6.13;;;3.10;90.40;;;;;;5052851;28;20025;-74
2021/01/06 03:47:05;;;;;;;13.57;6.20;;;3.10;90.50;;;;;;5053288;28;20029;-74
2021/01/06 03:49:44;;;;;;;12.23;5.77;;;3.10;90.40;;;;;;5053790;28;20029;-74
2021/01/06 03:52:47;;;;;;;11.67;5.80;;;3.10;90.50;;;;;;5053366;28;20442;-74
2021/01/06 03:55:47;;;;;;;11.32;6.57;;;3.10;90.60;;;;;;5038122;28;20041;-74
2021/01/06 03:58:41;;;;;;;13.43;6.03;;;3.10;90.40;;;;;;5054609;28;20061;-74
2021/01/06 04:01:14;;;;;;;15.57;6.40;;;3.10;90.50;;;;;;5053023;28;20021;-74
2021/01/06 04:04:01;;;;;;;15.07;6.57;;;3.10;90.40;;;;;;5052342;28;20115;-74
2021/01/06 04:06:29;;;;;;;13.03;5.73;;;3.00;90.40;;;;;;5052990;28;20029;-74
2021/01/06 04:08:57;;;;;;;10.97;6.17;;;3.10;90.40;;;;;;5052182;28;20461;-75
2021/01/06 04:11:34;;;;;;;13.80;6.07;;;3.10;90.50;;;;;;5052811;28;20425;-74
2021/01/06 04:14:00;;;;;;;13.23;5.93;;;3.10;90.50;;;;;;5053920;28;20021;-74
2021/01/06 04:16:26;;;;;;;11.37;5.57;;;3.10;90.40;;;;;;5052678;28;20028;-74
2021/01/06 04:18:52;;;;;;;12.30;5.83;;;3.00;90.30;;;;;;5052061;28;20032;-74
2021/01/06 04:21:17;;;;;;;10.93;5.80;;;3.10;90.30;;;;;;5052192;28;20036;-74
2021/01/06 04:23:43;;;;;;;11.73;5.30;;;3.10;90.40;;;;;;5053283;28;20112;-74
2021/01/06 04:26:12;;;;;;;12.37;5.60;;;3.00;90.50;;;;;;5052510;28;20354;-74
2021/01/06 04:28:38;;;;;;;11.90;6.07;;;3.10;90.40;;;;;;5051655;28;20072;-74
2021/01/06 04:31:06;;;;;;;12.30;5.30;;;3.10;90.10;;;;;;5052732;28;20072;-74
2021/01/06 04:33:39;;;;;;;10.97;5.57;;;3.00;90.00;;;;;;5053380;28;20056;-74
2021/01/06 04:36:22;;;;;;;11.50;5.37;;;3.00;90.00;;;;;;5052258;28;20482;-74
2021/01/06 04:38:51;;;;;;;10.60;5.43;;;3.00;90.20;;;;;;5053264;28;20025;-74
2021/01/06 04:41:46;;;;;;;10.67;5.53;;;3.00;90.20;;;;;;5052230;28;20041;-74
2021/01/06 04:44:40;;;;;;;13.50;5.47;;;3.10;90.10;;;;;;5052216;28;20052;-74
2021/01/06 04:47:27;;;;;;;14.57;6.33;;;3.10;90.10;;;;;;5052002;28;20051;-74
2021/01/06 04:50:14;;;;;;;11.33;5.23;;;3.00;90.30;;;;;;5052671;28;20634;-74
2021/01/06 04:53:28;;;;;;;10.40;5.37;;;3.00;90.30;;;;;;5051480;28;20119;-74
2021/01/06 04:56:16;;;;;;;11.20;5.43;;;3.00;90.20;;;;;;5050535;28;20238;-74
2021/01/06 04:59:03;;;;;;;12.03;5.33;;;3.00;90.30;;;;;;5052639;28;20100;-74
2021/01/06 05:01:34;;;;;;;10.17;5.13;;;3.00;90.30;;;;;;5053235;28;20025;-74
2021/01/06 05:04:22;;;;;;;9.07;5.40;;;3.00;90.20;;;;;;5052811;28;20021;-74
2021/01/06 05:07:04;;;;;;;11.87;5.50;;;3.00;90.30;;;;;;5051190;28;20048;-74
2021/01/06 05:10:01;;;;;;;13.75;5.95;;;3.00;90.50;;;;;;5051878;28;20033;-74
2021/01/06 05:12:33;;;;;;;12.37;5.73;;;3.00;90.40;;;;;;5052820;28;20037;-74
2021/01/06 05:15:13;;;;;;;12.40;5.85;;;3.10;90.30;;;;;;5051088;28;20461;-74
2021/01/06 05:17:41;;;;;;;11.40;5.27;;;3.00;90.20;;;;;;5050886;28;20033;-74
2021/01/06 05:20:09;;;;;;;9.97;5.07;;;3.10;90.20;;;;;;5051474;28;20537;-74
2021/01/06 05:22:36;;;;;;;11.80;5.83;;;3.10;90.20;;;;;;5051465;28;20040;-74
2021/01/06 05:25:03;;;;;;;12.00;5.50;;;3.00;90.20;;;;;;5052795;28;20025;-74
2021/01/06 05:27:36;;;;;;;11.13;5.50;;;3.00;90.20;;;;;;5052652;28;20108;-74
2021/01/06 05:30:23;;;;;;;10.07;5.23;;;3.00;90.20;;;;;;5052855;28;20048;-74
2021/01/06 05:32:53;;;;;;;10.93;5.60;;;3.00;90.30;;;;;;5050848;28;20363;-74
2021/01/06 05:35:25;;;;;;;9.67;4.93;;;3.00;90.30;;;;;;5051421;28;20036;-74
2021/01/06 05:37:59;;;;;;;12.48;5.60;;;3.00;90.40;;;;;;5050787;28;20115;-74
2021/01/06 05:40:27;;;;;;;8.97;5.20;;;3.00;90.40;;;;;;5052725;28;20037;-74
2021/01/06 05:42:56;;;;;;;11.80;5.63;;;3.00;90.40;;;;;;5051879;28;20021;-74
2021/01/06 05:45:25;;;;;;;12.03;5.63;;;3.00;90.40;;;;;;5051167;28;20106;-74
2021/01/06 05:47:54;;;;;;;10.33;5.57;;;3.10;90.30;;;;;;5050519;28;20131;-74
2021/01/06 05:50:38;;;;;;;11.40;5.90;;;3.10;90.30;;;;;;5052410;28;20029;-74
2021/01/06 05:53:14;;;;;;;9.23;5.17;;;3.10;90.40;;;;;;5052407;28;20029;-74
2021/01/06 05:55:45;;;;;;;11.40;5.30;;;3.00;90.20;;;;;;5051528;28;20025;-74
2021/01/06 05:58:33;;;;;;;10.30;4.97;;;3.00;90.50;;;;;;5053851;28;20060;-74
2021/01/06 06:01:16;;;;;;;11.03;5.23;;;3.00;90.40;;;;;;5054622;28;20497;-74
2021/01/06 06:04:07;;;;;;;10.20;5.30;;;3.00;90.40;;;;;;5054658;28;20029;-74
2021/01/06 06:06:53;;;;;;;11.60;5.60;;;3.00;90.50;;;;;;5055104;28;20043;-74
2021/01/06 06:09:29;;;;;;;10.37;5.47;;;3.00;90.60;;;;;;5055232;28;20106;-74
2021/01/06 06:12:22;;;;;;;12.10;5.90;;;3.00;90.70;;;;;;5055764;28;20025;-74
2021/01/06 06:14:47;;;;;;;12.63;5.63;;;3.00;90.70;;;;;;5055560;28;20017;-73
2021/01/06 06:17:44;;;;;;;10.40;5.40;;;3.10;90.70;;;;;;5056230;28;20355;-74
2021/01/06 06:20:44;;;;;;;9.77;5.37;;;3.10;90.60;;;;;;5056018;28;20048;-74
2021/01/06 06:23:28;;;;;;;10.27;4.63;;;3.10;90.60;;;;;;5056179;28;20078;-74
2021/01/06 06:26:31;;;;;;;10.07;5.23;;;3.00;90.60;;;;;;5054163;28;20029;-74
2021/01/06 06:29:21;;;;;;;11.37;5.47;;;3.00;90.40;;;;;;5054944;28;20053;-75
2021/01/06 06:31:52;;;;;;;11.20;5.27;;;3.00;90.40;;;;;;5054149;28;20068;-74
2021/01/06 06:34:40;;;;;;;11.43;5.13;;;3.00;90.60;;;;;;5056165;28;20025;-74
2021/01/06 06:37:10;;;;;;;8.97;4.67;;;3.00;90.40;;;;;;5055998;28;20029;-74
2021/01/06 06:39:42;;;;;;;11.63;5.40;;;3.00;90.30;;;;;;5054464;28;20405;-74
2021/01/06 06:42:17;;;;;;;10.68;5.80;;;3.00;90.30;;;;;;5055765;28;20029;-74
2021/01/06 06:44:54;;;;;;;11.00;5.17;;;3.10;90.40;;;;;;5055157;28;20052;-74
2021/01/06 06:47:27;;;;;;;11.57;5.40;;;3.00;90.20;;;;;;5056020;28;20025;-74
2021/01/06 06:50:22;;;;;;;11.00;5.77;;;3.00;90.20;;;;;;5053345;28;20025;-74
2021/01/06 06:53:14;;;;;;;11.07;5.27;;;2.90;90.30;;;;;;5048778;28;20037;-73
2021/01/06 06:55:52;;;;;;;10.77;5.47;;;3.00;90.30;;;;;;5054269;28;20037;-74
2021/01/06 06:58:36;;;;;;;11.37;5.90;;;3.00;90.20;;;;;;5055894;28;20037;-74
2021/01/06 07:01:09;;;;;;;9.53;5.23;;;3.00;90.20;;;;;;5053595;28;20029;-74
2021/01/06 07:03:37;;;;;;;11.40;5.77;;;2.90;90.20;;;;;;5055442;28;20021;-74
2021/01/06 07:06:08;;;;;;;11.50;5.83;;;2.90;90.20;;;;;;5053446;28;20064;-74
2021/01/06 07:08:49;;;;;;;10.50;5.10;;;3.00;90.20;;;;;;5054018;28;20036;-74
2021/01/06 07:11:27;;;;;;;11.30;5.70;;;3.00;90.20;;;;;;5054458;28;20044;-74
2021/01/06 07:14:17;;;;;;;10.33;5.40;;;3.00;90.20;;;;;;5053324;28;20116;-74
2021/01/06 07:17:02;;;;;;;10.30;5.40;;;3.00;90.30;;;;;;5054582;28;20066;-73
2021/01/06 07:19:39;;;;;;;9.67;5.10;;;2.90;90.20;;;;;;5054019;28;20086;-74
2021/01/06 07:22:16;;;;;;;10.27;5.20;;;2.90;90.20;;;;;;5054474;28;20033;-74
2021/01/06 07:24:49;;;;;;;11.30;5.40;;;3.00;90.40;;;;;;5053781;28;20355;-74
2021/01/06 07:27:15;;;;;;;15.67;6.23;;;3.00;90.30;;;;;;5053938;28;20029;-74
2021/01/06 07:29:49;;;;;;;12.67;6.30;;;3.00;90.30;;;;;;5054306;28;20059;-74
2021/01/06 07:32:16;;;;;;;14.20;6.17;;;3.00;90.40;;;;;;5053607;28;20033;-74
2021/01/06 07:34:54;;;;;;;13.50;6.33;;;3.00;90.30;;;;;;5054791;28;20044;-74
2021/01/06 07:37:29;;;;;;;11.10;6.40;;;2.90;90.30;;;;;;5054532;28;20025;-74
2021/01/06 07:40:03;;;;;;;11.93;6.23;;;2.90;90.40;;;;;;5054177;28;20021;-74
2021/01/06 07:42:39;;;;;;;12.00;6.43;;;2.90;90.50;;;;;;5054653;28;20029;-74
2021/01/06 07:45:24;;;;;;;12.60;7.10;;;2.90;90.50;;;;;;5052546;28;20244;-74
2021/01/06 07:48:06;;;;;;;13.60;6.13;;;2.90;90.70;;;;;;5053935;28;20048;-74
2021/01/06 07:50:34;;;;;;;10.95;6.07;;;2.90;90.80;;;;;;5053230;28;20032;-75
2021/01/06 07:53:07;;;;;;;11.83;5.87;;;3.00;90.80;;;;;;5053807;28;20174;-74
2021/01/06 07:55:35;;;;;;;15.07;6.77;;;3.00;90.70;;;;;;5053137;28;20103;-74
2021/01/06 07:58:34;;;;;;;12.47;6.30;;;3.00;90.70;;;;;;5053460;28;20033;-74
2021/01/06 08:01:32;;;;;;;9.40;5.60;;;3.10;90.70;;;;;;5049244;28;20037;-74
2021/01/06 08:04:18;;;;;;;12.23;5.97;;;3.10;90.60;;;;;;5045200;28;20405;-74
2021/01/06 08:06:55;;;;;;;13.53;6.73;;;3.10;90.80;;;;;;5054576;28;20033;-74
2021/01/06 08:09:40;;;;;;;13.60;7.33;;;3.00;91.00;;;;;;5054162;28;20029;-74
2021/01/06 08:12:14;;;;;;;12.97;6.53;;;3.00;90.70;;;;;;5052232;28;20041;-74
2021/01/06 08:14:41;;;;;;;11.37;6.47;;;3.10;90.60;;;;;;5054056;28;20139;-74
2021/01/06 08:17:26;;;;;;;14.07;6.83;;;3.10;90.50;;;;;;5052030;28;20033;-74
2021/01/06 08:20:07;;;;;;;11.83;6.50;;;3.00;90.60;;;;;;5052115;28;20054;-74
2021/01/06 08:22:50;;;;;;;12.73;6.73;;;3.10;90.60;;;;;;5052308;28;20039;-74
2021/01/06 08:25:21;;;;;;;15.13;7.60;;;3.10;90.50;;;;;;5053879;28;20029;-74
2021/01/06 08:27:47;;;;;;;15.50;7.47;;;3.10;90.50;;;;;;5053202;28;20025;-73
2021/01/06 08:30:29;;;;;;;14.67;7.90;;;3.10;90.50;;;;;;5053271;28;20449;-74
2021/01/06 08:33:07;;;;;;;11.18;5.13;;;3.10;90.70;;;;;;5053196;28;20032;-74
2021/01/06 08:35:37;;;;;;;11.33;6.00;;;3.10;90.60;;;;;;5053466;28;20108;-74
2021/01/06 08:38:03;;;;;;;13.63;6.40;;;3.10;90.50;;;;;;5051705;28;20462;-74
2021/01/06 08:40:36;;;;;;;12.27;5.97;;;3.00;90.60;;;;;;5053313;28;20025;-74
2021/01/06 08:43:10;;;;;;;14.23;6.37;;;3.00;90.60;;;;;;5052949;28;20035;-74
2021/01/06 08:45:39;;;;;;;10.73;5.73;;;3.10;90.50;;;;;;5052327;28;20075;-74
2021/01/06 08:48:43;;;;;;;13.57;5.93;;;3.00;90.70;;;;;;5051501;28;20044;-74
2021/01/06 08:51:15;;;;;;;9.83;5.73;;;3.00;90.70;;;;;;5030249;28;20120;-74
2021/01/06 08:53:43;;;;;;;11.07;5.30;;;3.00;90.60;;;;;;5014642;28;20098;-74
2021/01/06 08:56:19;;;;;;;13.00;6.00;;;3.10;90.60;;;;;;5013780;28;20045;-74
2021/01/06 08:58:47;;;;;;;15.13;5.67;;;3.10;90.50;;;;;;5014474;28;20225;-74
2021/01/06 09:01:42;;;;;;;10.77;5.57;;;3.10;90.50;;;;;;5030887;28;20034;-74
2021/01/06 09:04:18;;;;;;;11.67;5.17;;;3.10;90.50;;;;;;5009776;28;20037;-74
2021/01/06 09:07:02;;;;;;;14.03;7.20;;;3.20;90.50;;;;;;5014298;28;20034;-74
2021/01/06 09:09:59;;;;;;;14.53;6.87;;;3.20;90.40;;;;;;5030537;28;20053;-74
2021/01/06 09:12:49;;;;;;;12.70;6.37;;;3.20;90.50;;;;;;5030893;28;20250;-74
2021/01/06 09:15:29;;;;;;;14.83;6.57;;;3.10;90.60;;;;;;5014340;28;20033;-74
2021/01/06 09:18:20;;;;;;;13.00;6.47;;;3.10;90.60;;;;;;5013539;28;20026;-74
2021/01/06 09:21:06;;;;;;;13.23;6.53;;;3.20;90.50;;;;;;5026647;28;20091;-74
2021/01/06 09:23:32;;;;;;;11.70;6.23;;;3.20;90.40;;;;;;5051755;28;20115;-74
2021/01/06 09:26:00;;;;;;;13.53;6.33;;;3.20;90.40;;;;;;5051940;28;20021;-73
2021/01/06 09:28:27;;;;;;;14.23;6.57;;;3.20;90.40;;;;;;5051096;28;20367;-74
2021/01/06 09:30:53;;;;;;;11.60;6.07;;;3.20;90.40;;;;;;5050785;28;20025;-73
2021/01/06 09:33:25;;;;;;;14.33;6.20;;;3.20;90.40;;;;;;5050624;28;20116;-74
2021/01/06 09:35:51;;;;;;;;;;;3.30;90.30;;;;;;5051232;28;20119;-74
2021/01/06 09:38:40;;;;;;;10.93;5.87;;;3.20;90.20;;;;;;5052706;28;20381;-74
2021/01/06 09:41:11;;;;;;;12.57;6.10;;;3.20;90.30;;;;;;5051928;28;20090;-74
2021/01/06 09:43:49;;;;;;;12.60;6.13;;;3.20;90.30;;;;;;5051494;28;20025;-74
2021/01/06 09:46:18;;;;;;;11.60;6.27;;;3.20;90.40;;;;;;5050264;28;20033;-74
2021/01/06 09:48:51;;;;;;;14.33;6.83;;;3.20;90.50;;;;;;5052357;28;20029;-74
2021/01/06 09:51:18;;;;;;;12.37;6.47;;;3.20;90.60;;;;;;5051041;28;20510;-74
2021/01/06 09:53:44;;;;;;;14.00;6.90;;;3.20;90.60;;;;;;5052402;28;20120;-74
2021/01/06 09:56:15;;;;;;;13.17;5.97;;;3.30;90.50;;;;;;5051409;28;20028;-74
2021/01/06 09:58:42;;;;;;;11.20;6.07;;;3.30;90.40;;;;;;5052364;28;20033;-74
2021/01/06 10:01:41;;;;;;;13.97;6.87;;;3.30;90.40;;;;;;5051714;28;20021;-74
2021/01/06 10:04:18;;;;;;;10.97;6.07;;;3.40;90.20;;;;;;5050473;28;20083;-74
2021/01/06 10:06:57;;;;;;;13.27;6.37;;;3.40;90.30;;;;;;5051145;28;20064;-74
2021/01/06 10:09:40;;;;;;;13.87;6.93;;;3.40;90.20;;;;;;5051105;28;20055;-74
2021/01/06 10:12:30;;;;;;;13.80;7.17;;;3.40;90.20;;;;;;5051996;28;20055;-74
2021/01/06 10:15:16;;;;;;;14.33;6.77;;;3.50;89.80;;;;;;5051640;28;20032;-74
2021/01/06 10:18:03;;;;;;;14.23;6.93;;;3.40;89.90;;;;;;5052594;28;20029;-74
2021/01/06 10:20:39;;;;;;;13.50;6.87;;;3.50;90.00;;;;;;5051950;28;20025;-74
2021/01/06 10:23:31;;;;;;;12.93;6.37;;;3.40;89.90;;;;;;5051353;28;20479;-74
2021/01/06 10:26:23;;;;;;;13.85;6.60;;;3.40;89.20;;;;;;5051744;28;20032;-74
2021/01/06 10:28:50;;;;;;;14.18;7.03;;;3.40;89.60;;;;;;5051943;28;20053;-74
2021/01/06 10:31:25;;;;;;;13.20;6.90;;;3.40;90.20;;;;;;5051494;28;20090;-74
2021/01/06 10:34:18;;;;;;;15.23;6.70;;;3.40;89.70;;;;;;5052039;28;20029;-74
2021/01/06 10:37:02;;;;;;;13.73;7.00;;;3.40;89.90;;;;;;5050925;28;20102;-74
2021/01/06 10:39:41;;;;;;;11.77;6.30;;;3.40;90.00;;;;;;5050682;28;20424;-74
2021/01/06 10:42:22;;;;;;;13.67;6.63;;;3.40;90.00;;;;;;5050191;28;20029;-74
2021/01/06 10:45:17;;;;;;;11.80;6.23;;;3.40;90.00;;;;;;5053960;28;20056;-74
2021/01/06 10:47:51;;;;;;;15.07;6.70;;;3.50;89.90;;;;;;5054514;28;20025;-72
2021/01/06 10:50:23;;;;;;;8.90;5.60;;;3.50;90.00;;;;;;5054934;28;20032;-72
2021/01/06 10:53:03;;;;;;;10.27;6.07;;;3.40;90.00;;;;;;5054317;28;20492;-73
2021/01/06 10:55:42;;;;;;;10.43;5.87;;;3.40;90.00;;;;;;5055565;28;20047;-73
2021/01/06 10:58:29;;;;;;;9.17;5.13;;;3.40;90.00;;;;;;5053704;28;20485;-73
2021/01/06 11:01:10;;;;;;;10.70;5.67;;;3.40;90.00;;;;;;5055003;28;20216;-72
2021/01/06 11:04:06;;;;;;;10.40;5.53;;;3.40;90.00;;;;;;5055496;28;20039;-73
2021/01/06 11:06:34;;;;;;;10.43;5.67;;;3.40;90.00;;;;;;5054970;28;20382;-72
2021/01/06 11:09:37;;;;;;;9.47;5.20;;;3.40;90.00;;;;;;5054660;28;20078;-72
2021/01/06 11:12:14;;;;;;;10.90;5.77;;;3.40;90.10;;;;;;5054610;28;20101;-75
2021/01/06 11:15:01;;;;;;;9.47;5.20;;;3.40;90.10;;;;;;5054078;28;20099;-73
2021/01/06 11:17:42;;;;;;;11.10;5.63;;;3.40;90.10;;;;;;5054879;28;20029;-73
2021/01/06 11:20:36;;;;;;;11.10;5.37;;;3.40;89.60;;;;;;5054366;28;20029;-74
2021/01/06 11:23:27;;;;;;;9.77;5.27;;;3.50;89.80;;;;;;5053261;28;20398;-75
2021/01/06 11:26:20;;;;;;;12.37;5.63;;;3.50;89.90;;;;;;5053658;28;20382;-72
2021/01/06 11:29:01;;;;;;;8.40;4.47;;;3.50;89.70;;;;;;5050942;28;20049;-72
2021/01/06 11:31:33;;;;;;;8.07;4.70;;;3.60;89.50;;;;;;5053539;28;20479;-72
2021/01/06 11:34:22;;;;;;;9.73;4.82;;;3.60;89.10;;;;;;5052999;28;20382;-72
2021/01/06 11:36:59;;;;;;;11.70;5.40;;;3.70;88.90;;;;;;5051055;28;20037;-73
2021/01/06 11:39:27;;;;;;;10.47;4.93;;;3.70;88.50;;;;;;5054626;28;20036;-72
2021/01/06 11:42:12;;;;;;;9.53;5.00;;;3.70;88.70;;;;;;5053250;28;20466;-73
2021/01/06 11:44:42;;;;;;;11.83;5.77;;;3.80;88.60;;;;;;5053503;28;20024;-73
2021/01/06 11:47:47;;;;;;;9.20;5.20;;;3.80;88.30;;;;;;5053838;28;20032;-72
2021/01/06 11:50:32;;;;;;;10.70;5.40;;;3.80;88.90;;;;;;5052383;28;20037;-72
2021/01/06 11:53:17;;;;;;;9.00;5.27;;;3.90;87.90;;;;;;5054451;28;20040;-73
2021/01/06 11:56:03;;;;;;;10.77;5.30;;;3.90;88.00;;;;;;5052384;28;20052;-73
2021/01/06 11:58:46;;;;;;;12.03;5.70;;;3.90;88.40;;;;;;5052564;28;20375;-73
2021/01/06 12:01:37;;;;;;;10.63;5.40;;;3.90;88.00;;;;;;5053381;28;20108;-72
2021/01/06 12:04:13;;;;;;;8.87;5.07;;;3.80;87.90;;;;;;5053570;28;20029;-73
2021/01/06 12:07:08;;;;;;;8.83;4.60;;;3.80;87.70;;;;;;5053076;28;20025;-72
2021/01/06 12:10:06;;;;;;;8.67;4.63;;;3.70;87.50;;;;;;5051849;28;20545;-73
2021/01/06 12:12:44;;;;;;;9.50;4.63;;;3.70;87.60;;;;;;5052906;28;20025;-72
2021/01/06 12:15:47;;;;;;;10.20;4.53;;;3.70;88.00;;;;;;5051918;28;20029;-72
2021/01/06 12:18:45;;;;;;;9.73;4.90;;;3.80;87.70;;;;;;5052237;28;20021;-72
2021/01/06 12:21:33;;;;;;;9.00;4.73;;;3.80;87.90;;;;;;5051669;28;20029;-72
2021/01/06 12:24:30;;;;;;;9.47;5.30;;;3.90;87.70;;;;;;5053793;28;20055;-73
2021/01/06 12:27:10;;;;;;;9.07;4.63;;;3.90;87.60;;;;;;5053525;28;20025;-73
2021/01/06 12:30:11;;;;;;;10.40;5.30;;;3.90;87.60;;;;;;5053390;28;20071;-73
2021/01/06 12:32:56;;;;;;;9.13;4.90;;;3.90;87.60;;;;;;5053305;28;20037;-73
2021/01/06 12:35:39;;;;;;;10.20;5.97;;;3.90;87.60;;;;;;5053024;28;20029;-72
2021/01/06 12:38:05;;;;;;;12.23;5.67;;;4.00;87.60;;;;;;5053053;28;20108;-72
2021/01/06 12:40:32;;;;;;;9.47;5.27;;;3.90;87.70;;;;;;5053563;28;20168;-72
2021/01/06 12:43:00;;;;;;;9.73;5.50;;;3.90;87.60;;;;;;5052168;28;20036;-73
2021/01/06 12:45:32;;;;;;;12.83;6.10;;;4.00;87.80;;;;;;5053160;28;20029;-72
2021/01/06 12:48:14;;;;;;;15.57;6.43;;;4.00;87.80;;;;;;5052241;28;20123;-73
2021/01/06 12:50:50;;;;;;;12.40;5.50;;;4.00;87.60;;;;;;5051946;28;20040;-73
2021/01/06 12:53:51;;;;;;;11.63;5.63;;;3.90;87.90;;;;;;5051480;28;20262;-73
2021/01/06 12:56:31;;;;;;;9.93;5.77;;;3.90;88.10;;;;;;5051280;28;20112;-72
2021/01/06 12:59:14;;;;;;;13.00;6.57;;;3.80;88.70;;;;;;5052032;28;20478;-72
2021/01/06 13:01:58;;;;;;;11.07;5.67;;;3.80;88.90;;;;;;5051851;28;20118;-72
2021/01/06 13:04:30;;;;;;;9.70;5.27;;;3.90;88.80;;;;;;5051224;28;20020;-72
2021/01/06 13:07:14;;;;;;;9.93;5.65;;;3.90;88.00;;;;;;5053026;28;20025;-72
2021/01/06 13:09:49;;;;;;;9.63;5.73;;;3.90;88.70;;;;;;5051614;28;20041;-72
2021/01/06 13:12:39;;;;;;;10.50;5.70;;;3.80;89.30;;;;;;5050991;28;20033;-72
2021/01/06 13:15:05;;;;;;;10.63;5.60;;;3.70;89.70;;;;;;5052670;28;20113;-72
2021/01/06 13:17:38;;;;;;;9.70;5.07;;;3.70;89.80;;;;;;5051592;28;20068;-72
2021/01/06 13:20:29;;;;;;;8.53;4.80;;;3.70;89.80;;;;;;5052798;28;20059;-71
2021/01/06 13:23:01;;;;;;;10.40;5.33;;;3.60;89.50;;;;;;5051648;28;20035;-72
2021/01/06 13:25:27;;;;;;;9.37;5.30;;;3.60;89.60;;;;;;5052174;28;20033;-72
2021/01/06 13:27:52;;;;;;;12.50;6.33;;;3.50;89.90;;;;;;5052650;28;20035;-72
2021/01/06 13:30:30;;;;;;;9.40;5.47;;;3.60;90.00;;;;;;5051998;28;20060;-72
2021/01/06 13:33:43;;;;;;;11.40;5.67;;;3.50;89.50;;;;;;5051454;28;20048;-72
2021/01/06 13:36:16;;;;;;;10.73;5.50;;;3.50;89.40;;;;;;5049614;28;20047;-72